createdAt,value
2022-12-15T00:02:19.766Z,8.73
2022-12-15T00:05:06.997Z,7.88
2022-12-15T00:07:53.418Z,7.43
2022-12-15T00:10:39.706Z,7.60
2022-12-15T00:13:30.771Z,7.30
2022-12-15T00:16:17.262Z,7.20
2022-12-15T00:19:03.275Z,7.07
2022-12-15T00:21:49.119Z,7.22
2022-12-15T00:24:34.969Z,8.30
2022-12-15T00:27:20.881Z,7.25
2022-12-15T00:30:06.777Z,7.30
2022-12-15T00:32:53.316Z,8.13
2022-12-15T00:35:39.286Z,7.80
2022-12-15T00:38:32.917Z,8.90
2022-12-15T00:41:03.904Z,8.25
2022-12-15T00:43:33.467Z,8.68
2022-12-15T00:46:20.758Z,7.60
2022-12-15T00:48:48.303Z,8.55
2022-12-15T00:51:16.434Z,7.40
2022-12-15T00:54:03.209Z,7.72
2022-12-15T00:56:49.443Z,8.43
2022-12-15T00:59:36.717Z,9.27
2022-12-15T01:02:23.200Z,8.30
2022-12-15T01:05:09.476Z,8.98
2022-12-15T01:07:55.546Z,9.52
2022-12-15T01:10:41.652Z,9.23
2022-12-15T01:13:32.290Z,7.90
2022-12-15T01:16:18.600Z,8.07
2022-12-15T01:19:04.709Z,9.13
2022-12-15T01:21:32.571Z,8.95
2022-12-15T01:23:59.924Z,8.43
2022-12-15T01:26:27.259Z,10.10
2022-12-15T01:28:54.678Z,8.70
2022-12-15T01:31:22.028Z,8.20
2022-12-15T01:33:53.237Z,8.95
2022-12-15T01:36:20.598Z,9.27
2022-12-15T01:38:53.689Z,8.70
2022-12-15T01:41:22.036Z,9.38
2022-12-15T01:43:49.771Z,8.82
2022-12-15T01:46:21.300Z,8.63
2022-12-15T01:49:15.296Z,8.80
2022-12-15T01:51:47.016Z,9.15
2022-12-15T01:54:23.308Z,9.27
2022-12-15T01:56:54.911Z,8.75
2022-12-15T01:59:32.902Z,9.30
2022-12-15T02:02:00.643Z,8.63
2022-12-15T02:04:28.933Z,8.85
2022-12-15T02:06:56.424Z,9.80
2022-12-15T02:09:26.474Z,8.55
2022-12-15T02:12:33.400Z,8.40
2022-12-15T02:15:28.306Z,8.07
2022-12-15T02:18:14.644Z,8.82
2022-12-15T02:21:00.887Z,8.23
2022-12-15T02:23:56.076Z,8.27
2022-12-15T02:26:57.368Z,8.73
2022-12-15T02:29:53.040Z,8.88
2022-12-15T02:32:40.838Z,7.50
2022-12-15T02:35:21.438Z,8.98
2022-12-15T02:37:50.084Z,8.35
2022-12-15T02:40:17.739Z,8.45
2022-12-15T02:42:51.773Z,9.40
2022-12-15T02:45:38.670Z,8.98
2022-12-15T02:48:24.535Z,8.50
2022-12-15T02:51:18.465Z,9.07
2022-12-15T02:53:59.048Z,8.35
2022-12-15T02:56:46.014Z,9.55
2022-12-15T02:59:32.238Z,8.35
2022-12-15T03:02:06.388Z,8.30
2022-12-15T03:04:34.247Z,9.30
2022-12-15T03:07:05.427Z,9.00
2022-12-15T03:09:33.410Z,8.10
2022-12-15T03:12:00.995Z,9.20
2022-12-15T03:14:28.498Z,8.15
2022-12-15T03:16:56.319Z,8.15
2022-12-15T03:19:23.890Z,8.68
2022-12-15T03:21:51.588Z,9.00
2022-12-15T03:24:19.112Z,8.52
2022-12-15T03:26:49.961Z,8.77
2022-12-15T03:29:18.226Z,8.80
2022-12-15T03:31:45.851Z,9.13
2022-12-15T03:34:17.368Z,9.43
2022-12-15T03:36:44.746Z,9.05
2022-12-15T03:39:12.477Z,9.02
2022-12-15T03:41:41.612Z,8.32
2022-12-15T03:44:09.122Z,8.85
2022-12-15T03:46:36.583Z,8.43
2022-12-15T03:49:04.103Z,9.38
2022-12-15T03:51:31.630Z,9.50
2022-12-15T03:53:59.044Z,9.30
2022-12-15T03:56:26.526Z,8.63
2022-12-15T03:58:53.866Z,8.82
2022-12-15T04:01:21.372Z,7.75
2022-12-15T04:03:48.908Z,8.50
2022-12-15T04:06:16.276Z,8.65
2022-12-15T04:08:43.637Z,9.05
2022-12-15T04:11:10.977Z,8.35
2022-12-15T04:13:38.375Z,8.43
2022-12-15T04:16:06.119Z,9.05
2022-12-15T04:18:33.494Z,8.35
2022-12-15T04:21:01.069Z,9.07
2022-12-15T04:23:28.636Z,9.18
2022-12-15T04:26:14.938Z,9.18
2022-12-15T04:29:01.138Z,8.55
2022-12-15T04:31:50.083Z,8.27
2022-12-15T04:34:42.785Z,8.57
2022-12-15T04:37:32.267Z,7.85
2022-12-15T04:40:18.878Z,8.80
2022-12-15T04:43:05.979Z,8.88
2022-12-15T04:45:52.248Z,9.27
2022-12-15T04:48:38.144Z,8.98
2022-12-15T04:51:24.617Z,8.45
2022-12-15T04:54:10.770Z,8.38
2022-12-15T04:56:56.683Z,8.30
2022-12-15T04:59:42.657Z,8.55
2022-12-15T05:02:29.102Z,8.13
2022-12-15T05:05:15.565Z,8.60
2022-12-15T05:08:01.762Z,8.63
2022-12-15T05:10:47.808Z,8.05
2022-12-15T05:13:34.602Z,8.88
2022-12-15T05:16:21.218Z,8.75
2022-12-15T05:19:07.265Z,8.93
2022-12-15T05:21:53.233Z,8.18
2022-12-15T05:24:39.252Z,8.13
2022-12-15T05:27:25.197Z,8.80
2022-12-15T05:30:11.217Z,8.27
2022-12-15T05:32:38.663Z,8.05
2022-12-15T05:35:06.380Z,8.88
2022-12-15T05:37:33.836Z,8.52
2022-12-15T05:40:01.259Z,8.90
2022-12-15T05:42:28.711Z,8.70
2022-12-15T05:44:56.157Z,9.15
2022-12-15T05:47:23.591Z,8.95
2022-12-15T05:49:51.228Z,9.43
2022-12-15T05:52:18.715Z,9.05
2022-12-15T05:54:46.098Z,9.43
2022-12-15T05:57:13.552Z,9.38
2022-12-15T05:59:40.923Z,9.55
2022-12-15T06:02:08.469Z,8.68
2022-12-15T06:04:36.213Z,9.00
2022-12-15T06:07:03.682Z,9.07
2022-12-15T06:09:31.119Z,8.95
2022-12-15T06:11:58.580Z,9.20
2022-12-15T06:14:26.013Z,10.10
2022-12-15T06:16:53.517Z,9.30
2022-12-15T06:19:22.030Z,8.65
2022-12-15T06:21:49.859Z,9.30
2022-12-15T06:24:17.398Z,8.50
2022-12-15T06:26:44.898Z,10.50
2022-12-15T06:29:13.421Z,10.23
2022-12-15T06:31:42.955Z,9.32
2022-12-15T06:34:13.350Z,9.07
2022-12-15T06:36:41.068Z,9.55
2022-12-15T06:39:11.062Z,9.98
2022-12-15T06:41:39.166Z,9.00
2022-12-15T06:44:06.876Z,8.25
2022-12-15T06:46:35.196Z,8.88
2022-12-15T06:49:02.822Z,9.48
2022-12-15T06:51:30.278Z,9.40
2022-12-15T06:53:59.351Z,10.13
2022-12-15T06:56:34.602Z,9.10
2022-12-15T06:59:04.648Z,9.50
2022-12-15T07:01:32.754Z,9.32
2022-12-15T07:04:01.509Z,9.68
2022-12-15T07:06:36.060Z,9.73
2022-12-15T07:09:07.362Z,9.30
2022-12-15T07:11:35.304Z,10.50
2022-12-15T07:14:03.569Z,9.90
2022-12-15T07:16:31.201Z,10.45
2022-12-15T07:18:58.955Z,10.30
2022-12-15T07:21:26.618Z,10.27
2022-12-15T07:23:56.358Z,10.57
2022-12-15T07:26:24.908Z,10.68
2022-12-15T07:28:53.612Z,9.55
2022-12-15T07:31:22.591Z,10.38
2022-12-15T07:33:52.235Z,10.15
2022-12-15T07:36:20.404Z,9.93
2022-12-15T07:38:50.079Z,9.73
2022-12-15T07:41:19.490Z,10.65
2022-12-15T07:43:47.994Z,10.85
2022-12-15T07:46:16.618Z,9.90
2022-12-15T07:48:50.479Z,10.30
2022-12-15T07:51:20.355Z,11.48
2022-12-15T07:53:51.755Z,10.40
2022-12-15T07:56:20.370Z,10.35
2022-12-15T07:58:48.331Z,10.82
2022-12-15T08:01:16.610Z,11.45
2022-12-15T08:03:45.080Z,11.35
2022-12-15T08:06:14.999Z,11.50
2022-12-15T08:08:45.021Z,12.43
2022-12-15T08:11:21.676Z,12.10
2022-12-15T08:14:02.718Z,9.23
2022-12-15T08:16:34.529Z,11.13
2022-12-15T08:19:03.742Z,12.88
2022-12-15T08:21:32.092Z,11.23
2022-12-15T08:24:03.058Z,10.55
2022-12-15T08:26:31.587Z,12.20
2022-12-15T08:29:31.771Z,11.07
2022-12-15T08:31:52.298Z,14.68
2022-12-15T08:34:20.620Z,13.40
2022-12-15T08:36:49.544Z,14.75
2022-12-15T08:39:17.201Z,12.30
2022-12-15T08:41:45.026Z,12.70
2022-12-15T08:44:12.568Z,11.80
2022-12-15T08:46:40.058Z,12.85
2022-12-15T08:49:08.712Z,12.85
2022-12-15T08:51:36.358Z,12.57
2022-12-15T08:54:03.859Z,15.80
2022-12-15T08:56:31.293Z,13.57
2022-12-15T08:59:01.157Z,12.93
2022-12-15T09:01:31.458Z,11.63
2022-12-15T09:03:59.461Z,12.75
2022-12-15T09:06:31.941Z,13.45
2022-12-15T09:09:02.721Z,13.35
2022-12-15T09:13:58.537Z,13.90
2022-12-15T09:16:27.682Z,12.77
2022-12-15T09:18:57.516Z,13.73
2022-12-15T09:21:27.218Z,13.52
2022-12-15T09:24:00.116Z,13.50
2022-12-15T09:26:32.743Z,14.35
2022-12-15T09:29:01.956Z,13.50
2022-12-15T09:31:32.673Z,13.13
2022-12-15T09:36:30.403Z,13.45
2022-12-15T09:38:59.020Z,14.77
2022-12-15T09:41:30.560Z,14.65
2022-12-15T09:44:00.896Z,12.98
2022-12-15T09:46:37.099Z,14.57
2022-12-15T09:49:31.033Z,13.45
2022-12-15T09:52:10.671Z,13.85
2022-12-15T09:54:41.780Z,14.40
2022-12-15T09:57:18.759Z,13.57
2022-12-15T09:59:59.456Z,14.60
2022-12-15T10:02:55.769Z,15.10
2022-12-15T10:05:57.377Z,14.90
2022-12-15T10:08:23.319Z,16.67
2022-12-15T10:10:57.411Z,16.30
2022-12-15T10:13:40.358Z,16.65
2022-12-15T10:16:23.135Z,15.23
2022-12-15T10:19:02.216Z,16.52
2022-12-15T10:21:31.467Z,18.42
2022-12-15T10:27:20.721Z,19.33
2022-12-15T10:29:56.590Z,17.10
2022-12-15T10:32:51.724Z,16.10
2022-12-15T10:35:28.693Z,13.02
2022-12-15T10:38:01.417Z,12.77
2022-12-15T10:40:59.209Z,12.43
2022-12-15T10:43:34.090Z,11.73
2022-12-15T10:46:22.092Z,13.07
2022-12-15T10:48:52.479Z,12.40
2022-12-15T10:51:25.722Z,13.43
2022-12-15T10:54:03.290Z,11.93
2022-12-15T10:56:33.991Z,13.07
2022-12-15T11:01:34.223Z,12.77
2022-12-15T11:06:32.195Z,14.15
2022-12-15T11:09:24.837Z,12.95
2022-12-15T11:12:12.241Z,13.52
2022-12-15T11:14:45.926Z,12.23
2022-12-15T11:17:24.050Z,13.45
2022-12-15T11:20:03.420Z,14.02
2022-12-15T11:22:50.820Z,13.88
2022-12-15T11:25:42.855Z,13.88
2022-12-15T11:28:16.851Z,15.25
2022-12-15T11:31:13.365Z,17.48
2022-12-15T11:33:40.975Z,17.67
2022-12-15T11:36:29.975Z,17.27
2022-12-15T11:39:13.113Z,17.98
2022-12-15T11:41:55.347Z,18.50
2022-12-15T11:44:44.626Z,18.60
2022-12-15T11:47:31.452Z,9.32
2022-12-15T11:50:07.900Z,16.77
2022-12-15T11:53:00.179Z,17.15
2022-12-15T11:55:45.660Z,17.83
2022-12-15T11:58:23.624Z,16.17
2022-12-15T12:01:05.310Z,18.00
2022-12-15T12:04:09.486Z,16.63
2022-12-15T12:07:10.089Z,14.40
2022-12-15T12:10:04.500Z,13.23
2022-12-15T12:12:43.977Z,11.80
2022-12-15T12:15:12.736Z,11.75
2022-12-15T12:17:53.405Z,10.90
2022-12-15T12:20:48.621Z,11.60
2022-12-15T12:23:31.331Z,11.95
2022-12-15T12:26:12.459Z,12.15
2022-12-15T12:29:19.685Z,11.90
2022-12-15T12:31:51.592Z,11.63
2022-12-15T12:35:31.498Z,12.07
2022-12-15T12:38:07.252Z,13.32
2022-12-15T12:40:41.108Z,13.25
2022-12-15T12:43:14.134Z,13.60
2022-12-15T12:45:50.277Z,13.30
2022-12-15T12:48:43.900Z,12.05
2022-12-15T12:51:28.575Z,12.95
2022-12-15T12:53:58.233Z,11.70
2022-12-15T12:56:48.673Z,12.05
2022-12-15T12:59:30.222Z,11.50
2022-12-15T13:02:25.850Z,11.73
2022-12-15T13:05:04.453Z,11.65
2022-12-15T13:07:43.005Z,10.38
2022-12-15T13:10:21.944Z,11.65
2022-12-15T13:12:55.668Z,11.00
2022-12-15T13:15:39.913Z,11.40
2022-12-15T13:18:16.183Z,11.77
2022-12-15T13:20:50.524Z,10.60
2022-12-15T13:23:21.453Z,10.63
2022-12-15T13:25:59.035Z,10.82
2022-12-15T13:28:29.523Z,11.05
2022-12-15T13:31:19.038Z,9.80
2022-12-15T13:33:50.160Z,10.15
2022-12-15T13:39:12.556Z,8.63
2022-12-15T13:42:23.673Z,8.98
2022-12-15T13:44:46.792Z,6.13
2022-12-15T13:47:24.038Z,8.70
2022-12-15T13:50:17.857Z,9.60
2022-12-15T13:53:18.542Z,7.15
2022-12-15T13:56:34.758Z,6.88
2022-12-15T13:59:12.542Z,8.15
2022-12-15T14:01:49.227Z,6.63
2022-12-15T14:04:19.965Z,6.82
2022-12-15T14:06:56.441Z,7.03
2022-12-15T14:09:41.035Z,8.05
2022-12-15T14:12:13.859Z,8.10
2022-12-15T14:14:49.296Z,8.25
2022-12-15T14:17:18.625Z,9.15
2022-12-15T14:22:36.262Z,8.13
2022-12-15T14:25:18.037Z,8.85
2022-12-15T14:27:45.713Z,9.05
2022-12-15T14:30:24.591Z,9.93
2022-12-15T14:33:07.228Z,10.32
2022-12-15T14:38:45.118Z,10.18
2022-12-15T14:41:22.605Z,8.93
2022-12-15T14:44:36.403Z,7.63
2022-12-15T14:46:40.692Z,8.18
2022-12-15T14:49:10.934Z,7.90
2022-12-15T14:51:43.257Z,7.32
2022-12-15T14:54:32.004Z,6.63
2022-12-15T14:57:02.636Z,7.40
2022-12-15T14:59:34.149Z,7.05
2022-12-15T15:02:23.090Z,6.90
2022-12-15T15:03:09.546Z,8.90
2022-12-15T15:03:09.716Z,21.33
2022-12-15T15:04:59.917Z,7.05
2022-12-15T15:07:31.217Z,7.18
2022-12-15T15:10:00.077Z,6.70
2022-12-15T15:12:43.427Z,6.70
2022-12-15T15:15:24.641Z,6.65
2022-12-15T15:17:57.832Z,6.10
2022-12-15T15:20:26.979Z,7.32
2022-12-15T15:23:16.980Z,7.22
2022-12-15T15:25:58.383Z,7.40
2022-12-15T15:28:29.235Z,7.65
2022-12-15T15:31:06.879Z,8.85
2022-12-15T15:33:34.557Z,7.43
2022-12-15T15:36:02.906Z,7.00
2022-12-15T15:38:41.022Z,8.40
2022-12-15T15:41:14.350Z,8.02
2022-12-15T15:43:42.448Z,7.43
2022-12-15T15:46:34.385Z,9.45
2022-12-15T15:49:06.257Z,10.55
2022-12-15T15:51:34.549Z,10.18
2022-12-15T15:54:06.316Z,11.43
2022-12-15T15:56:34.573Z,10.00
2022-12-15T15:59:11.850Z,8.85
2022-12-15T16:01:39.694Z,9.45
2022-12-15T16:04:07.440Z,9.75
2022-12-15T16:06:35.864Z,9.60
2022-12-15T16:09:05.133Z,8.68
2022-12-15T16:11:33.366Z,7.93
2022-12-15T16:14:01.522Z,7.95
2022-12-15T16:16:32.289Z,8.20
2022-12-15T16:18:59.967Z,7.75
2022-12-15T16:21:28.260Z,7.13
2022-12-15T16:23:57.996Z,7.25
2022-12-15T16:26:29.362Z,7.35
2022-12-15T16:28:57.218Z,7.85
2022-12-15T16:31:41.036Z,8.35
2022-12-15T16:34:09.394Z,8.18
2022-12-15T16:36:37.045Z,8.05
2022-12-15T16:39:04.631Z,9.80
2022-12-15T16:41:33.154Z,10.07
2022-12-15T16:44:00.677Z,9.73
2022-12-15T16:46:28.115Z,9.02
2022-12-15T16:48:55.602Z,8.80
2022-12-15T16:51:39.472Z,10.10
2022-12-15T16:54:07.735Z,11.23
2022-12-15T16:56:35.951Z,12.90
2022-12-15T16:59:31.419Z,13.40
2022-12-15T17:01:51.277Z,14.48
2022-12-15T17:04:19.342Z,17.20
2022-12-15T17:06:47.092Z,19.20
2022-12-15T17:09:24.812Z,18.55
2022-12-15T17:11:52.602Z,19.27
2022-12-15T17:14:20.034Z,17.50
2022-12-15T17:16:47.688Z,17.70
2022-12-15T17:19:21.274Z,18.15
2022-12-15T17:21:52.460Z,21.42
2022-12-15T17:26:48.592Z,38.05
2022-12-15T17:29:18.999Z,45.58
2022-12-15T17:31:46.628Z,62.30
2022-12-15T17:34:30.396Z,48.95
2022-12-15T17:37:00.712Z,45.50
2022-12-15T17:39:29.213Z,53.10
2022-12-15T17:42:00.571Z,50.05
2022-12-15T17:44:33.765Z,30.15
2022-12-15T17:47:04.504Z,19.58
2022-12-15T17:49:36.040Z,21.15
2022-12-15T17:52:20.017Z,16.00
2022-12-15T17:54:47.625Z,16.55
2022-12-15T17:57:15.189Z,19.25
2022-12-15T17:59:42.784Z,21.48
2022-12-15T18:02:13.210Z,24.25
2022-12-15T18:07:21.529Z,28.67
2022-12-15T18:09:51.003Z,30.23
2022-12-15T18:12:24.561Z,26.38
2022-12-15T18:14:53.021Z,24.65
2022-12-15T18:17:20.805Z,22.83
2022-12-15T18:19:48.789Z,25.67
2022-12-15T18:22:22.279Z,30.35
2022-12-15T18:24:52.440Z,29.02
2022-12-15T18:27:24.972Z,21.58
2022-12-15T18:29:52.920Z,20.58
2022-12-15T18:32:23.528Z,19.63
2022-12-15T18:34:51.298Z,20.33
2022-12-15T18:37:22.886Z,23.25
2022-12-15T18:39:50.873Z,21.05
2022-12-15T18:42:21.546Z,25.90
2022-12-15T18:44:51.881Z,24.67
2022-12-15T18:47:22.514Z,27.77
2022-12-15T18:49:50.166Z,20.60
2022-12-15T18:52:23.355Z,25.33
2022-12-15T18:54:53.132Z,28.15
2022-12-15T18:57:30.394Z,23.77
2022-12-15T19:00:24.372Z,23.38
2022-12-15T19:02:54.259Z,22.83
2022-12-15T19:05:29.982Z,21.00
2022-12-15T19:08:24.448Z,19.23
2022-12-15T19:10:56.446Z,20.50
2022-12-15T19:13:27.909Z,19.45
2022-12-15T19:15:55.617Z,21.13
2022-12-15T19:18:43.256Z,21.23
2022-12-15T19:21:42.013Z,18.33
2022-12-15T19:24:15.773Z,17.02
2022-12-15T19:26:43.795Z,17.15
2022-12-15T19:29:18.117Z,16.63
2022-12-15T19:31:46.376Z,15.82
2022-12-15T19:34:14.242Z,16.73
2022-12-15T19:36:41.724Z,16.13
2022-12-15T19:39:22.000Z,16.20
2022-12-15T19:41:49.471Z,15.75
2022-12-15T19:44:17.181Z,15.40
2022-12-15T19:46:45.296Z,14.52
2022-12-15T19:49:14.278Z,16.10
2022-12-15T19:51:42.548Z,18.50
2022-12-15T19:54:17.208Z,17.90
2022-12-15T19:56:44.666Z,17.75
2022-12-15T19:59:22.244Z,16.55
2022-12-15T20:01:52.010Z,17.05
2022-12-15T20:04:24.068Z,16.95
2022-12-15T20:06:51.879Z,16.23
2022-12-15T20:09:19.691Z,18.45
2022-12-15T20:11:47.238Z,17.35
2022-12-15T20:14:17.410Z,16.27
2022-12-15T20:16:45.728Z,16.52
2022-12-15T20:19:13.493Z,16.27
2022-12-15T20:21:41.641Z,18.38
2022-12-15T20:24:10.645Z,17.40
2022-12-15T20:26:39.296Z,21.73
2022-12-15T20:29:24.716Z,20.85
2022-12-15T20:31:52.422Z,19.65
2022-12-15T20:34:20.283Z,30.33
2022-12-15T20:36:48.200Z,46.58
2022-12-15T20:39:27.204Z,33.90
2022-12-15T20:41:55.375Z,38.25
2022-12-15T20:44:23.902Z,23.13
2022-12-15T20:46:51.721Z,18.98
2022-12-15T20:49:21.750Z,17.73
2022-12-15T20:51:50.729Z,13.40
2022-12-15T20:54:21.819Z,15.20
2022-12-15T20:56:50.232Z,13.95
2022-12-15T20:59:18.356Z,14.48
2022-12-15T21:01:46.943Z,16.10
2022-12-15T21:04:20.799Z,14.32
2022-12-15T21:06:54.303Z,20.40
2022-12-15T21:09:23.716Z,19.65
2022-12-15T21:11:55.084Z,17.02
2022-12-15T21:14:23.950Z,18.83
2022-12-15T21:16:52.090Z,15.52
2022-12-15T21:19:21.291Z,18.25
2022-12-15T21:21:55.104Z,16.25
2022-12-15T21:24:25.672Z,17.33
2022-12-15T21:26:53.793Z,15.45
2022-12-15T21:29:24.772Z,19.10
2022-12-15T21:31:52.473Z,18.23
2022-12-15T21:34:20.129Z,18.23
2022-12-15T21:36:51.726Z,15.00
2022-12-15T21:39:25.508Z,17.55
2022-12-15T21:41:53.093Z,15.32
2022-12-15T21:44:22.941Z,15.43
2022-12-15T21:46:50.526Z,14.77
2022-12-15T21:49:20.440Z,15.18
2022-12-15T21:51:58.300Z,14.75
2022-12-15T21:54:34.812Z,14.15
2022-12-15T21:57:02.883Z,13.65
2022-12-15T21:59:32.862Z,14.50
2022-12-15T22:02:01.347Z,13.80
2022-12-15T22:04:34.174Z,13.75
2022-12-15T22:07:02.367Z,13.73
2022-12-15T22:09:29.846Z,15.98
2022-12-15T22:11:57.460Z,15.68
2022-12-15T22:14:30.544Z,15.13
2022-12-15T22:16:59.841Z,14.07
2022-12-15T22:19:27.655Z,16.65
2022-12-15T22:21:55.217Z,29.13
2022-12-15T22:24:22.610Z,18.73
2022-12-15T22:26:50.321Z,21.80
2022-12-15T22:29:21.195Z,19.05
2022-12-15T22:34:20.487Z,18.88
2022-12-15T22:36:48.260Z,19.90
2022-12-15T22:39:15.908Z,18.40
2022-12-15T22:41:45.756Z,17.52
2022-12-15T22:44:21.335Z,17.67
2022-12-15T22:46:50.727Z,17.35
2022-12-15T22:49:39.446Z,17.83
2022-12-15T22:52:16.825Z,17.88
2022-12-15T22:54:45.952Z,18.50
2022-12-15T22:57:32.646Z,18.25
2022-12-15T23:00:05.697Z,17.83
2022-12-15T23:02:36.986Z,19.60
2022-12-15T23:05:05.717Z,18.08
2022-12-15T23:07:34.175Z,18.23
2022-12-15T23:10:20.957Z,18.95
2022-12-15T23:12:48.689Z,18.75
2022-12-15T23:15:34.773Z,16.35
2022-12-15T23:18:02.272Z,17.23
2022-12-15T23:20:29.808Z,15.82
2022-12-15T23:22:57.192Z,17.35
2022-12-15T23:25:24.654Z,18.27
2022-12-15T23:27:52.095Z,17.27
2022-12-15T23:30:19.876Z,16.13
2022-12-15T23:32:47.463Z,15.63
2022-12-15T23:35:15.026Z,16.83
2022-12-15T23:37:42.402Z,16.50
2022-12-15T23:40:10.859Z,16.10
2022-12-15T23:42:38.395Z,18.27
2022-12-15T23:45:06.302Z,16.10
2022-12-15T23:47:33.725Z,16.80
2022-12-15T23:50:01.294Z,15.68
2022-12-15T23:52:28.804Z,17.60
2022-12-15T23:54:56.261Z,17.48
2022-12-15T23:57:23.760Z,16.20
2022-12-15T23:59:51.260Z,19.15
